sensor_id;sensor_type;location;lat;lon;timestamp;pressure;altitude;pressure_sealevel;temperature;humidity
77086;BME280;66014;53.134;18.006;2024-03-08T00:00:18;102088.72;;;1.17;70.93
77086;BME280;66014;53.134;18.006;2024-03-08T00:03:04;102088.48;;;1.14;71.01
77086;BME280;66014;53.134;18.006;2024-03-08T00:05:31;102083.30;;;1.13;71.24
77086;BME280;66014;53.134;18.006;2024-03-08T00:08:01;102080.42;;;1.12;71.44
77086;BME280;66014;53.134;18.006;2024-03-08T00:10:27;102074.55;;;1.10;71.30
77086;BME280;66014;53.134;18.006;2024-03-08T00:12:54;102079.66;;;1.09;71.42
77086;BME280;66014;53.134;18.006;2024-03-08T00:15:20;102076.42;;;1.08;71.45
77086;BME280;66014;53.134;18.006;2024-03-08T00:17:49;102075.33;;;1.06;71.50
77086;BME280;66014;53.134;18.006;2024-03-08T00:20:16;102079.10;;;1.04;71.86
77086;BME280;66014;53.134;18.006;2024-03-08T00:22:43;102075.20;;;1.02;71.84
77086;BME280;66014;53.134;18.006;2024-03-08T00:25:09;102080.33;;;1.01;71.76
77086;BME280;66014;53.134;18.006;2024-03-08T00:27:36;102080.73;;;1.00;72.20
77086;BME280;66014;53.134;18.006;2024-03-08T00:30:02;102080.63;;;0.98;72.13
77086;BME280;66014;53.134;18.006;2024-03-08T00:32:28;102084.09;;;0.99;72.23
77086;BME280;66014;53.134;18.006;2024-03-08T00:34:54;102079.60;;;0.98;72.49
77086;BME280;66014;53.134;18.006;2024-03-08T00:37:21;102074.22;;;0.97;72.41
77086;BME280;66014;53.134;18.006;2024-03-08T00:39:51;102076.48;;;0.98;72.43
77086;BME280;66014;53.134;18.006;2024-03-08T00:42:18;102071.86;;;0.99;72.61
77086;BME280;66014;53.134;18.006;2024-03-08T00:44:44;102071.17;;;0.98;72.62
77086;BME280;66014;53.134;18.006;2024-03-08T00:47:10;102071.58;;;0.98;72.74
77086;BME280;66014;53.134;18.006;2024-03-08T00:49:37;102072.30;;;0.97;72.91
77086;BME280;66014;53.134;18.006;2024-03-08T00:52:05;102067.46;;;0.96;72.95
77086;BME280;66014;53.134;18.006;2024-03-08T00:54:36;102067.50;;;0.95;72.81
77086;BME280;66014;53.134;18.006;2024-03-08T00:57:05;102067.40;;;0.94;72.90
77086;BME280;66014;53.134;18.006;2024-03-08T00:59:32;102064.69;;;0.93;73.10
77086;BME280;66014;53.134;18.006;2024-03-08T01:02:01;102066.14;;;0.91;73.25
77086;BME280;66014;53.134;18.006;2024-03-08T01:04:29;102063.59;;;0.90;72.94
77086;BME280;66014;53.134;18.006;2024-03-08T01:06:56;102064.92;;;0.88;72.90
77086;BME280;66014;53.134;18.006;2024-03-08T01:09:23;102061.73;;;0.86;73.12
77086;BME280;66014;53.134;18.006;2024-03-08T01:11:49;102058.15;;;0.84;73.24
77086;BME280;66014;53.134;18.006;2024-03-08T01:14:17;102051.83;;;0.82;73.19
77086;BME280;66014;53.134;18.006;2024-03-08T01:16:43;102051.82;;;0.79;73.27
77086;BME280;66014;53.134;18.006;2024-03-08T01:19:09;102052.27;;;0.77;73.24
77086;BME280;66014;53.134;18.006;2024-03-08T01:21:35;102052.22;;;0.74;73.33
77086;BME280;66014;53.134;18.006;2024-03-08T01:24:00;102046.45;;;0.71;73.24
77086;BME280;66014;53.134;18.006;2024-03-08T01:26:28;102044.92;;;0.67;73.46
77086;BME280;66014;53.134;18.006;2024-03-08T01:28:55;102042.95;;;0.65;73.24
77086;BME280;66014;53.134;18.006;2024-03-08T01:31:20;102042.83;;;0.60;73.53
77086;BME280;66014;53.134;18.006;2024-03-08T01:33:49;102044.96;;;0.56;73.61
77086;BME280;66014;53.134;18.006;2024-03-08T01:36:15;102038.16;;;0.53;73.58
77086;BME280;66014;53.134;18.006;2024-03-08T01:38:42;102038.34;;;0.50;73.40
77086;BME280;66014;53.134;18.006;2024-03-08T01:41:08;102040.02;;;0.48;73.69
77086;BME280;66014;53.134;18.006;2024-03-08T01:43:34;102036.11;;;0.46;73.73
77086;BME280;66014;53.134;18.006;2024-03-08T01:46:01;102034.26;;;0.44;73.68
77086;BME280;66014;53.134;18.006;2024-03-08T01:48:28;102031.23;;;0.42;73.71
77086;BME280;66014;53.134;18.006;2024-03-08T01:50:56;102030.85;;;0.39;73.67
77086;BME280;66014;53.134;18.006;2024-03-08T01:53:24;102029.88;;;0.38;73.75
77086;BME280;66014;53.134;18.006;2024-03-08T01:55:52;102024.69;;;0.34;73.63
77086;BME280;66014;53.134;18.006;2024-03-08T01:58:20;102026.96;;;0.30;73.64
77086;BME280;66014;53.134;18.006;2024-03-08T02:00:48;102022.61;;;0.27;73.70
77086;BME280;66014;53.134;18.006;2024-03-08T02:03:17;102022.95;;;0.23;73.73
77086;BME280;66014;53.134;18.006;2024-03-08T02:05:43;102023.80;;;0.21;74.10
77086;BME280;66014;53.134;18.006;2024-03-08T02:08:09;102020.25;;;0.19;73.87
77086;BME280;66014;53.134;18.006;2024-03-08T02:10:40;102018.13;;;0.16;74.03
77086;BME280;66014;53.134;18.006;2024-03-08T02:13:07;102018.78;;;0.13;74.31
77086;BME280;66014;53.134;18.006;2024-03-08T02:18:20;102015.27;;;0.10;74.52
77086;BME280;66014;53.134;18.006;2024-03-08T02:20:48;102014.60;;;0.09;74.94
77086;BME280;66014;53.134;18.006;2024-03-08T02:23:14;102011.80;;;0.10;74.90
77086;BME280;66014;53.134;18.006;2024-03-08T02:25:40;102005.48;;;0.10;75.12
77086;BME280;66014;53.134;18.006;2024-03-08T02:28:11;102006.00;;;0.11;75.20
77086;BME280;66014;53.134;18.006;2024-03-08T02:30:39;102005.13;;;0.10;75.43
77086;BME280;66014;53.134;18.006;2024-03-08T02:33:07;102005.87;;;0.09;75.36
77086;BME280;66014;53.134;18.006;2024-03-08T02:35:35;102000.81;;;0.10;75.62
77086;BME280;66014;53.134;18.006;2024-03-08T02:38:04;101999.41;;;0.09;75.68
77086;BME280;66014;53.134;18.006;2024-03-08T02:40:30;102002.48;;;0.11;75.68
77086;BME280;66014;53.134;18.006;2024-03-08T02:42:56;101999.86;;;0.11;75.63
77086;BME280;66014;53.134;18.006;2024-03-08T02:45:21;102000.19;;;0.11;75.66
77086;BME280;66014;53.134;18.006;2024-03-08T02:47:47;101999.15;;;0.11;75.78
77086;BME280;66014;53.134;18.006;2024-03-08T02:50:16;101995.13;;;0.12;75.82
77086;BME280;66014;53.134;18.006;2024-03-08T02:52:44;101998.91;;;0.12;75.78
77086;BME280;66014;53.134;18.006;2024-03-08T02:55:12;101999.79;;;0.13;75.69
77086;BME280;66014;53.134;18.006;2024-03-08T02:57:41;101999.63;;;0.13;75.67
77086;BME280;66014;53.134;18.006;2024-03-08T03:00:07;101996.17;;;0.11;75.83
77086;BME280;66014;53.134;18.006;2024-03-08T03:02:36;101993.82;;;0.09;75.62
77086;BME280;66014;53.134;18.006;2024-03-08T03:05:04;101996.71;;;0.08;75.69
77086;BME280;66014;53.134;18.006;2024-03-08T03:07:32;101992.64;;;0.06;75.72
77086;BME280;66014;53.134;18.006;2024-03-08T03:10:00;101994.29;;;0.04;75.79
77086;BME280;66014;53.134;18.006;2024-03-08T03:12:30;101994.96;;;0.01;75.81
77086;BME280;66014;53.134;18.006;2024-03-08T03:14:59;101990.58;;;-0.02;75.73
77086;BME280;66014;53.134;18.006;2024-03-08T03:17:26;101992.31;;;-0.05;75.74
77086;BME280;66014;53.134;18.006;2024-03-08T03:19:52;101990.89;;;-0.08;75.68
77086;BME280;66014;53.134;18.006;2024-03-08T03:22:19;101989.17;;;-0.12;75.74
77086;BME280;66014;53.134;18.006;2024-03-08T03:24:45;101988.27;;;-0.15;75.55
77086;BME280;66014;53.134;18.006;2024-03-08T03:27:17;101985.09;;;-0.18;75.44
77086;BME280;66014;53.134;18.006;2024-03-08T03:29:43;101984.71;;;-0.20;75.46
77086;BME280;66014;53.134;18.006;2024-03-08T03:32:13;101985.01;;;-0.22;75.48
77086;BME280;66014;53.134;18.006;2024-03-08T03:34:39;101986.41;;;-0.23;75.55
77086;BME280;66014;53.134;18.006;2024-03-08T03:37:06;101984.52;;;-0.23;75.66
77086;BME280;66014;53.134;18.006;2024-03-08T03:39:34;101985.29;;;-0.25;75.52
77086;BME280;66014;53.134;18.006;2024-03-08T03:42:00;101991.16;;;-0.27;75.60
77086;BME280;66014;53.134;18.006;2024-03-08T03:44:28;101987.17;;;-0.27;76.09
77086;BME280;66014;53.134;18.006;2024-03-08T03:46:54;101986.63;;;-0.27;76.17
77086;BME280;66014;53.134;18.006;2024-03-08T03:49:20;101982.98;;;-0.27;76.11
77086;BME280;66014;53.134;18.006;2024-03-08T03:51:46;101979.67;;;-0.27;76.16
77086;BME280;66014;53.134;18.006;2024-03-08T03:54:12;101981.28;;;-0.28;76.31
77086;BME280;66014;53.134;18.006;2024-03-08T03:56:38;101982.31;;;-0.27;76.33
77086;BME280;66014;53.134;18.006;2024-03-08T03:59:06;101980.36;;;-0.27;76.64
77086;BME280;66014;53.134;18.006;2024-03-08T04:01:33;101977.42;;;-0.27;76.61
77086;BME280;66014;53.134;18.006;2024-03-08T04:04:00;101977.94;;;-0.28;76.78
77086;BME280;66014;53.134;18.006;2024-03-08T04:06:26;101979.66;;;-0.27;76.93
77086;BME280;66014;53.134;18.006;2024-03-08T04:08:52;101977.52;;;-0.26;77.13
77086;BME280;66014;53.134;18.006;2024-03-08T04:11:18;101975.73;;;-0.25;77.03
77086;BME280;66014;53.134;18.006;2024-03-08T04:13:44;101975.73;;;-0.25;77.01
77086;BME280;66014;53.134;18.006;2024-03-08T04:16:10;101974.20;;;-0.26;76.85
77086;BME280;66014;53.134;18.006;2024-03-08T04:18:37;101971.27;;;-0.27;76.97
77086;BME280;66014;53.134;18.006;2024-03-08T04:21:05;101973.72;;;-0.27;76.84
77086;BME280;66014;53.134;18.006;2024-03-08T04:23:33;101972.21;;;-0.28;76.83
77086;BME280;66014;53.134;18.006;2024-03-08T04:26:02;101973.33;;;-0.29;76.89
77086;BME280;66014;53.134;18.006;2024-03-08T04:28:30;101971.84;;;-0.31;76.84
77086;BME280;66014;53.134;18.006;2024-03-08T04:30:57;101969.42;;;-0.32;76.87
77086;BME280;66014;53.134;18.006;2024-03-08T04:33:26;101967.97;;;-0.34;76.90
77086;BME280;66014;53.134;18.006;2024-03-08T04:35:53;101964.71;;;-0.35;77.04
77086;BME280;66014;53.134;18.006;2024-03-08T04:38:19;101966.72;;;-0.37;76.98
77086;BME280;66014;53.134;18.006;2024-03-08T04:40:45;101964.85;;;-0.38;76.94
77086;BME280;66014;53.134;18.006;2024-03-08T04:43:11;101968.22;;;-0.39;77.08
77086;BME280;66014;53.134;18.006;2024-03-08T04:45:37;101961.80;;;-0.39;77.03
77086;BME280;66014;53.134;18.006;2024-03-08T04:48:04;101964.80;;;-0.40;77.14
77086;BME280;66014;53.134;18.006;2024-03-08T04:50:29;101963.56;;;-0.40;77.13
77086;BME280;66014;53.134;18.006;2024-03-08T04:52:55;101961.55;;;-0.41;77.18
77086;BME280;66014;53.134;18.006;2024-03-08T04:55:21;101959.32;;;-0.42;77.05
77086;BME280;66014;53.134;18.006;2024-03-08T04:57:48;101957.98;;;-0.43;76.92
77086;BME280;66014;53.134;18.006;2024-03-08T05:00:40;101958.41;;;-0.45;77.09
77086;BME280;66014;53.134;18.006;2024-03-08T05:03:10;101956.61;;;-0.47;76.86
77086;BME280;66014;53.134;18.006;2024-03-08T05:05:37;101955.55;;;-0.50;77.02
77086;BME280;66014;53.134;18.006;2024-03-08T05:08:03;101954.77;;;-0.52;77.01
77086;BME280;66014;53.134;18.006;2024-03-08T05:10:29;101956.73;;;-0.52;77.00
77086;BME280;66014;53.134;18.006;2024-03-08T05:12:56;101957.78;;;-0.53;76.69
77086;BME280;66014;53.134;18.006;2024-03-08T05:15:22;101955.40;;;-0.54;76.74
77086;BME280;66014;53.134;18.006;2024-03-08T05:17:52;101958.74;;;-0.55;76.82
77086;BME280;66014;53.134;18.006;2024-03-08T05:20:18;101956.50;;;-0.55;76.87
77086;BME280;66014;53.134;18.006;2024-03-08T05:22:45;101959.52;;;-0.56;76.70
77086;BME280;66014;53.134;18.006;2024-03-08T05:25:12;101959.38;;;-0.57;76.84
77086;BME280;66014;53.134;18.006;2024-03-08T05:27:39;101959.58;;;-0.57;76.85
77086;BME280;66014;53.134;18.006;2024-03-08T05:30:06;101959.95;;;-0.58;76.73
77086;BME280;66014;53.134;18.006;2024-03-08T05:32:32;101959.45;;;-0.59;76.84
77086;BME280;66014;53.134;18.006;2024-03-08T05:34:58;101956.49;;;-0.59;76.87
77086;BME280;66014;53.134;18.006;2024-03-08T05:37:26;101953.23;;;-0.60;76.60
77086;BME280;66014;53.134;18.006;2024-03-08T05:39:52;101953.89;;;-0.59;76.68
77086;BME280;66014;53.134;18.006;2024-03-08T05:42:18;101951.38;;;-0.57;76.82
77086;BME280;66014;53.134;18.006;2024-03-08T05:44:44;101954.54;;;-0.54;76.59
77086;BME280;66014;53.134;18.006;2024-03-08T05:47:13;101954.61;;;-0.52;76.60
77086;BME280;66014;53.134;18.006;2024-03-08T05:49:38;101952.98;;;-0.51;76.47
77086;BME280;66014;53.134;18.006;2024-03-08T05:52:04;101953.96;;;-0.50;76.59
77086;BME280;66014;53.134;18.006;2024-03-08T05:54:30;101955.09;;;-0.48;76.46
77086;BME280;66014;53.134;18.006;2024-03-08T05:56:58;101955.36;;;-0.46;76.27
77086;BME280;66014;53.134;18.006;2024-03-08T05:59:23;101959.48;;;-0.46;76.18
77086;BME280;66014;53.134;18.006;2024-03-08T06:01:49;101958.57;;;-0.44;75.57
77086;BME280;66014;53.134;18.006;2024-03-08T06:04:15;101960.02;;;-0.46;75.45
77086;BME280;66014;53.134;18.006;2024-03-08T06:06:43;101959.66;;;-0.45;75.46
77086;BME280;66014;53.134;18.006;2024-03-08T06:09:09;101958.67;;;-0.46;75.52
77086;BME280;66014;53.134;18.006;2024-03-08T06:11:41;101962.03;;;-0.44;75.73
77086;BME280;66014;53.134;18.006;2024-03-08T06:14:08;101959.41;;;-0.40;75.95
77086;BME280;66014;53.134;18.006;2024-03-08T06:16:34;101962.70;;;-0.33;76.21
77086;BME280;66014;53.134;18.006;2024-03-08T06:19:01;101961.09;;;-0.22;76.14
77086;BME280;66014;53.134;18.006;2024-03-08T06:21:28;101960.02;;;-0.08;76.11
77086;BME280;66014;53.134;18.006;2024-03-08T06:24:05;101958.23;;;0.10;76.14
77086;BME280;66014;53.134;18.006;2024-03-08T06:26:45;101960.91;;;0.31;75.90
77086;BME280;66014;53.134;18.006;2024-03-08T06:29:53;101956.96;;;0.50;75.45
77086;BME280;66014;53.134;18.006;2024-03-08T06:32:19;101962.02;;;0.75;75.31
77086;BME280;66014;53.134;18.006;2024-03-08T06:34:54;101961.08;;;0.98;74.94
77086;BME280;66014;53.134;18.006;2024-03-08T06:37:19;101958.32;;;1.19;74.48
77086;BME280;66014;53.134;18.006;2024-03-08T06:39:49;101958.40;;;1.39;74.29
77086;BME280;66014;53.134;18.006;2024-03-08T06:42:17;101954.19;;;1.61;73.96
77086;BME280;66014;53.134;18.006;2024-03-08T06:44:43;101955.61;;;1.83;73.75
77086;BME280;66014;53.134;18.006;2024-03-08T06:47:15;101952.12;;;2.09;73.53
77086;BME280;66014;53.134;18.006;2024-03-08T06:49:43;101953.85;;;2.33;73.12
77086;BME280;66014;53.134;18.006;2024-03-08T06:52:10;101953.69;;;2.57;72.76
77086;BME280;66014;53.134;18.006;2024-03-08T06:54:36;101949.17;;;2.82;72.30
77086;BME280;66014;53.134;18.006;2024-03-08T06:57:05;101951.95;;;3.04;71.75
77086;BME280;66014;53.134;18.006;2024-03-08T06:59:32;101954.67;;;3.26;71.37
77086;BME280;66014;53.134;18.006;2024-03-08T07:01:58;101952.05;;;3.50;71.16
77086;BME280;66014;53.134;18.006;2024-03-08T07:04:25;101954.56;;;3.75;70.74
77086;BME280;66014;53.134;18.006;2024-03-08T07:06:58;101954.64;;;4.02;70.26
77086;BME280;66014;53.134;18.006;2024-03-08T07:09:24;101955.02;;;4.34;69.75
77086;BME280;66014;53.134;18.006;2024-03-08T07:11:51;101957.61;;;4.72;69.00
77086;BME280;66014;53.134;18.006;2024-03-08T07:14:23;101957.45;;;5.08;68.77
77086;BME280;66014;53.134;18.006;2024-03-08T07:16:51;101952.36;;;5.46;68.23
77086;BME280;66014;53.134;18.006;2024-03-08T07:19:17;101947.69;;;5.80;67.32
77086;BME280;66014;53.134;18.006;2024-03-08T07:21:43;101947.28;;;6.13;66.72
77086;BME280;66014;53.134;18.006;2024-03-08T07:24:10;101945.95;;;6.47;66.11
77086;BME280;66014;53.134;18.006;2024-03-08T07:27:04;101949.02;;;6.81;65.24
77086;BME280;66014;53.134;18.006;2024-03-08T07:29:33;101946.82;;;7.09;64.60
77086;BME280;66014;53.134;18.006;2024-03-08T07:32:07;101952.61;;;7.35;63.97
77086;BME280;66014;53.134;18.006;2024-03-08T07:34:51;101947.11;;;7.64;63.70
77086;BME280;66014;53.134;18.006;2024-03-08T07:37:17;101944.90;;;7.90;62.88
77086;BME280;66014;53.134;18.006;2024-03-08T07:39:44;101943.61;;;8.16;62.66
77086;BME280;66014;53.134;18.006;2024-03-08T07:42:10;101943.21;;;8.43;61.74
77086;BME280;66014;53.134;18.006;2024-03-08T07:44:37;101942.35;;;8.64;60.84
77086;BME280;66014;53.134;18.006;2024-03-08T07:47:03;101943.94;;;8.74;60.03
77086;BME280;66014;53.134;18.006;2024-03-08T07:49:29;101942.96;;;8.84;60.04
77086;BME280;66014;53.134;18.006;2024-03-08T07:51:58;101934.53;;;9.04;59.94
77086;BME280;66014;53.134;18.006;2024-03-08T07:54:24;101932.65;;;9.31;59.44
77086;BME280;66014;53.134;18.006;2024-03-08T07:56:51;101928.34;;;9.64;59.26
77086;BME280;66014;53.134;18.006;2024-03-08T07:59:19;101930.33;;;9.92;58.31
77086;BME280;66014;53.134;18.006;2024-03-08T08:01:46;101928.04;;;10.18;57.62
77086;BME280;66014;53.134;18.006;2024-03-08T08:04:12;101921.45;;;10.37;57.27
77086;BME280;66014;53.134;18.006;2024-03-08T08:06:40;101921.98;;;10.59;57.02
77086;BME280;66014;53.134;18.006;2024-03-08T08:09:09;101920.92;;;10.82;56.30
77086;BME280;66014;53.134;18.006;2024-03-08T08:11:44;101918.19;;;11.02;55.67
77086;BME280;66014;53.134;18.006;2024-03-08T08:14:10;101920.76;;;11.05;55.19
77086;BME280;66014;53.134;18.006;2024-03-08T08:16:36;101918.04;;;11.06;55.43
77086;BME280;66014;53.134;18.006;2024-03-08T08:19:06;101915.64;;;11.14;54.55
77086;BME280;66014;53.134;18.006;2024-03-08T08:21:36;101918.23;;;11.27;54.36
77086;BME280;66014;53.134;18.006;2024-03-08T08:24:03;101916.84;;;11.41;53.95
77086;BME280;66014;53.134;18.006;2024-03-08T08:26:30;101916.05;;;11.57;53.30
77086;BME280;66014;53.134;18.006;2024-03-08T08:28:56;101915.88;;;11.77;53.15
77086;BME280;66014;53.134;18.006;2024-03-08T08:31:26;101912.38;;;11.97;52.82
77086;BME280;66014;53.134;18.006;2024-03-08T08:33:52;101909.69;;;12.09;52.08
77086;BME280;66014;53.134;18.006;2024-03-08T08:36:25;101907.70;;;12.06;50.75
77086;BME280;66014;53.134;18.006;2024-03-08T08:38:52;101908.17;;;12.01;51.56
77086;BME280;66014;53.134;18.006;2024-03-08T08:41:22;101905.70;;;12.08;50.89
77086;BME280;66014;53.134;18.006;2024-03-08T08:43:48;101904.27;;;12.10;50.53
77086;BME280;66014;53.134;18.006;2024-03-08T08:46:18;101902.03;;;12.07;50.34
77086;BME280;66014;53.134;18.006;2024-03-08T08:48:44;101900.77;;;12.11;50.33
77086;BME280;66014;53.134;18.006;2024-03-08T08:51:12;101902.21;;;12.24;49.51
77086;BME280;66014;53.134;18.006;2024-03-08T08:53:39;101900.07;;;12.46;49.66
77086;BME280;66014;53.134;18.006;2024-03-08T08:56:13;101900.69;;;12.72;48.86
77086;BME280;66014;53.134;18.006;2024-03-08T08:58:40;101899.23;;;12.91;48.53
77086;BME280;66014;53.134;18.006;2024-03-08T09:01:08;101898.61;;;13.15;48.26
77086;BME280;66014;53.134;18.006;2024-03-08T09:03:36;101894.09;;;13.30;47.97
77086;BME280;66014;53.134;18.006;2024-03-08T09:06:07;101887.25;;;13.41;47.76
77086;BME280;66014;53.134;18.006;2024-03-08T09:08:37;101888.70;;;13.58;47.58
77086;BME280;66014;53.134;18.006;2024-03-08T09:11:03;101885.99;;;13.79;45.97
77086;BME280;66014;53.134;18.006;2024-03-08T09:13:29;101881.48;;;13.78;44.74
77086;BME280;66014;53.134;18.006;2024-03-08T09:15:56;101882.80;;;13.71;45.06
77086;BME280;66014;53.134;18.006;2024-03-08T09:18:22;101880.95;;;13.75;44.97
77086;BME280;66014;53.134;18.006;2024-03-08T09:20:49;101881.84;;;13.83;44.62
77086;BME280;66014;53.134;18.006;2024-03-08T09:23:19;101881.61;;;13.96;44.76
77086;BME280;66014;53.134;18.006;2024-03-08T09:25:45;101878.01;;;14.08;43.92
77086;BME280;66014;53.134;18.006;2024-03-08T09:28:12;101874.05;;;14.08;43.88
77086;BME280;66014;53.134;18.006;2024-03-08T09:30:39;101874.62;;;14.17;43.31
77086;BME280;66014;53.134;18.006;2024-03-08T09:33:05;101873.51;;;14.39;43.00
77086;BME280;66014;53.134;18.006;2024-03-08T09:35:32;101875.43;;;14.61;42.58
77086;BME280;66014;53.134;18.006;2024-03-08T09:37:58;101874.05;;;14.72;42.49
77086;BME280;66014;53.134;18.006;2024-03-08T09:40:24;101875.70;;;14.91;41.30
77086;BME280;66014;53.134;18.006;2024-03-08T09:42:51;101873.34;;;14.87;41.19
77086;BME280;66014;53.134;18.006;2024-03-08T09:45:20;101873.66;;;14.87;40.41
77086;BME280;66014;53.134;18.006;2024-03-08T09:47:48;101867.69;;;14.80;40.11
77086;BME280;66014;53.134;18.006;2024-03-08T09:50:20;101866.52;;;14.84;39.71
77086;BME280;66014;53.134;18.006;2024-03-08T09:52:48;101862.54;;;14.85;39.29
77086;BME280;66014;53.134;18.006;2024-03-08T09:55:15;101860.07;;;14.89;38.93
77086;BME280;66014;53.134;18.006;2024-03-08T09:57:43;101858.89;;;14.94;38.59
77086;BME280;66014;53.134;18.006;2024-03-08T10:00:38;101860.49;;;15.08;38.04
77086;BME280;66014;53.134;18.006;2024-03-08T10:03:04;101850.77;;;15.33;38.17
77086;BME280;66014;53.134;18.006;2024-03-08T10:05:36;101846.41;;;15.66;37.53
77086;BME280;66014;53.134;18.006;2024-03-08T10:08:02;101850.41;;;15.79;36.74
77086;BME280;66014;53.134;18.006;2024-03-08T10:10:29;101850.14;;;15.96;36.55
77086;BME280;66014;53.134;18.006;2024-03-08T10:12:55;101848.35;;;15.92;36.11
77086;BME280;66014;53.134;18.006;2024-03-08T10:15:21;101843.52;;;15.95;35.91
77086;BME280;66014;53.134;18.006;2024-03-08T10:17:47;101843.09;;;16.04;35.83
77086;BME280;66014;53.134;18.006;2024-03-08T10:20:18;101848.55;;;16.24;35.93
77086;BME280;66014;53.134;18.006;2024-03-08T10:22:44;101843.66;;;16.42;35.67
77086;BME280;66014;53.134;18.006;2024-03-08T10:25:11;101839.83;;;16.67;35.33
77086;BME280;66014;53.134;18.006;2024-03-08T10:27:40;101837.85;;;16.91;34.52
77086;BME280;66014;53.134;18.006;2024-03-08T10:30:16;101833.59;;;16.95;33.37
77086;BME280;66014;53.134;18.006;2024-03-08T10:32:45;101839.92;;;16.80;33.29
77086;BME280;66014;53.134;18.006;2024-03-08T10:35:12;101834.67;;;16.52;33.54
77086;BME280;66014;53.134;18.006;2024-03-08T10:37:48;101830.98;;;16.49;33.54
77086;BME280;66014;53.134;18.006;2024-03-08T10:40:19;101833.48;;;16.63;32.45
77086;BME280;66014;53.134;18.006;2024-03-08T10:42:59;101828.37;;;16.60;31.79
77086;BME280;66014;53.134;18.006;2024-03-08T10:48:02;101826.38;;;16.70;32.61
77086;BME280;66014;53.134;18.006;2024-03-08T10:50:32;101828.35;;;16.79;32.25
77086;BME280;66014;53.134;18.006;2024-03-08T10:53:00;101823.73;;;16.67;31.78
77086;BME280;66014;53.134;18.006;2024-03-08T10:55:27;101824.19;;;16.37;31.69
77086;BME280;66014;53.134;18.006;2024-03-08T10:57:53;101821.92;;;16.26;32.21
77086;BME280;66014;53.134;18.006;2024-03-08T11:00:20;101818.33;;;16.45;32.19
77086;BME280;66014;53.134;18.006;2024-03-08T11:02:54;101812.67;;;16.75;32.06
77086;BME280;66014;53.134;18.006;2024-03-08T11:05:39;101808.01;;;17.10;31.46
77086;BME280;66014;53.134;18.006;2024-03-08T11:10:53;101799.19;;;17.26;30.10
77086;BME280;66014;53.134;18.006;2024-03-08T11:13:39;101797.17;;;17.28;30.36
77086;BME280;66014;53.134;18.006;2024-03-08T11:19:00;101796.23;;;17.08;29.55
77086;BME280;66014;53.134;18.006;2024-03-08T11:21:31;101793.60;;;16.98;29.92
77086;BME280;66014;53.134;18.006;2024-03-08T11:24:00;101790.45;;;17.00;28.92
77086;BME280;66014;53.134;18.006;2024-03-08T11:26:29;101791.73;;;16.82;28.57
77086;BME280;66014;53.134;18.006;2024-03-08T11:32:16;101787.54;;;16.71;29.98
77086;BME280;66014;53.134;18.006;2024-03-08T11:34:48;101781.67;;;16.78;30.35
77086;BME280;66014;53.134;18.006;2024-03-08T11:37:18;101780.75;;;16.92;29.95
77086;BME280;66014;53.134;18.006;2024-03-08T11:39:53;101777.80;;;16.61;29.54
77086;BME280;66014;53.134;18.006;2024-03-08T11:42:30;101773.80;;;16.35;29.90
77086;BME280;66014;53.134;18.006;2024-03-08T11:44:57;101772.83;;;16.06;30.66
77086;BME280;66014;53.134;18.006;2024-03-08T11:47:23;101769.75;;;16.08;30.73
77086;BME280;66014;53.134;18.006;2024-03-08T11:49:51;101762.50;;;16.00;30.38
77086;BME280;66014;53.134;18.006;2024-03-08T11:52:21;101761.60;;;16.04;30.98
77086;BME280;66014;53.134;18.006;2024-03-08T11:54:54;101757.52;;;16.29;30.67
77086;BME280;66014;53.134;18.006;2024-03-08T11:57:25;101752.76;;;16.45;30.40
77086;BME280;66014;53.134;18.006;2024-03-08T11:59:55;101746.89;;;16.59;29.87
77086;BME280;66014;53.134;18.006;2024-03-08T12:02:24;101741.81;;;16.75;30.10
77086;BME280;66014;53.134;18.006;2024-03-08T12:04:57;101739.13;;;16.88;29.58
77086;BME280;66014;53.134;18.006;2024-03-08T12:07:25;101738.63;;;17.00;29.97
77086;BME280;66014;53.134;18.006;2024-03-08T12:12:45;101727.22;;;17.51;29.89
77086;BME280;66014;53.134;18.006;2024-03-08T12:15:15;101729.77;;;17.67;29.46
77086;BME280;66014;53.134;18.006;2024-03-08T12:17:42;101724.55;;;17.73;28.99
77086;BME280;66014;53.134;18.006;2024-03-08T12:20:31;101723.69;;;17.69;28.61
77086;BME280;66014;53.134;18.006;2024-03-08T12:22:58;101723.48;;;17.53;29.08
77086;BME280;66014;53.134;18.006;2024-03-08T12:25:39;101722.88;;;17.58;29.58
77086;BME280;66014;53.134;18.006;2024-03-08T12:28:12;101718.45;;;17.73;29.62
77086;BME280;66014;53.134;18.006;2024-03-08T12:33:14;101710.10;;;17.57;29.49
77086;BME280;66014;53.134;18.006;2024-03-08T12:35:40;101708.17;;;17.47;29.09
77086;BME280;66014;53.134;18.006;2024-03-08T12:38:38;101703.60;;;17.27;29.01
77086;BME280;66014;53.134;18.006;2024-03-08T12:41:03;101702.73;;;17.13;29.81
77086;BME280;66014;53.134;18.006;2024-03-08T12:43:30;101696.04;;;17.14;29.20
77086;BME280;66014;53.134;18.006;2024-03-08T12:45:56;101701.79;;;17.04;29.59
77086;BME280;66014;53.134;18.006;2024-03-08T12:48:23;101696.52;;;16.97;29.75
77086;BME280;66014;53.134;18.006;2024-03-08T12:50:51;101691.96;;;16.94;29.80
77086;BME280;66014;53.134;18.006;2024-03-08T12:53:23;101689.64;;;16.84;29.70
77086;BME280;66014;53.134;18.006;2024-03-08T12:55:51;101685.25;;;16.70;29.95
77086;BME280;66014;53.134;18.006;2024-03-08T12:58:32;101683.65;;;16.63;30.14
77086;BME280;66014;53.134;18.006;2024-03-08T13:00:58;101679.41;;;16.57;29.89
77086;BME280;66014;53.134;18.006;2024-03-08T13:03:24;101674.88;;;16.59;29.88
77086;BME280;66014;53.134;18.006;2024-03-08T13:05:50;101676.08;;;16.52;29.81
77086;BME280;66014;53.134;18.006;2024-03-08T13:08:16;101672.24;;;16.39;30.00